Atomic City, Idaho
Current Conditions -  °F | °C
As of 8:53 PM on Sunday 23 Nov 2014 (Local Time) from KIDA Reporting Station
Overcast Overcast  
Wind Chill: 20°   Ceiling: 9000
Heat Index: 32°   Visibility: 10mi
Dew Point: 26°   Wind: 21mph
Humidity: 79%   Direction: 200°SSW
Pressure: 30.08"   Gusts: NA
Location:  43.44°N, 112.81°W
Report Text: KIDA 240353Z AUTO 20018KT 10SM OVC090 00/M03 A3008 RMK AO2 PK WND 21029/0314 SLP209 T00001033
Loading
Personal Weather Stations






























Interactive Weather Map New forecast layout! Learn more

10-Day Weather Forecast

Advertisements
Track Severe Weather on mobile